createdAt,value
2023-03-05T00:01:41.580Z,57.43
2023-03-05T00:04:14.639Z,56.99
2023-03-05T00:06:42.830Z,58.12
2023-03-05T00:09:12.938Z,56.84
2023-03-05T00:11:41.227Z,57.89
2023-03-05T00:14:09.312Z,58.12
2023-03-05T00:16:37.546Z,57.71
2023-03-05T00:19:05.860Z,58.03
2023-03-05T00:21:37.668Z,58.04
2023-03-05T00:24:09.508Z,58.04
2023-03-05T00:26:40.687Z,57.68
2023-03-05T00:29:10.920Z,58.65
2023-03-05T00:31:39.702Z,57.90
2023-03-05T00:34:13.528Z,58.07
2023-03-05T00:36:42.768Z,58.70
2023-03-05T00:39:10.836Z,58.08
2023-03-05T00:41:40.461Z,59.17
2023-03-05T00:44:08.742Z,58.46
2023-03-05T00:46:37.628Z,58.52
2023-03-05T00:49:06.002Z,58.57
2023-03-05T00:51:34.198Z,58.42
2023-03-05T00:54:03.579Z,58.91
2023-03-05T00:56:31.689Z,58.52
2023-03-05T00:59:01.072Z,58.48
2023-03-05T01:01:29.460Z,58.20
2023-03-05T01:03:59.576Z,58.73
2023-03-05T01:06:28.204Z,59.48
2023-03-05T01:08:57.266Z,58.13
2023-03-05T01:11:25.366Z,58.46
2023-03-05T01:13:53.378Z,58.67
2023-03-05T01:16:23.108Z,58.75
2023-03-05T01:18:51.247Z,58.45
2023-03-05T01:21:19.280Z,58.17
2023-03-05T01:23:47.328Z,59.37
2023-03-05T01:26:15.356Z,59.61
2023-03-05T01:28:43.409Z,59.05
2023-03-05T01:31:12.440Z,59.00
2023-03-05T01:33:41.816Z,59.67
2023-03-05T01:36:13.497Z,58.60
2023-03-05T01:38:41.931Z,59.25
2023-03-05T01:41:10.999Z,58.63
2023-03-05T01:43:40.034Z,58.31
2023-03-05T01:46:28.904Z,58.67
2023-03-05T01:49:09.426Z,58.74
2023-03-05T01:51:43.751Z,58.60
2023-03-05T01:54:15.593Z,59.01
2023-03-05T01:56:44.976Z,58.85
2023-03-05T01:59:14.830Z,58.58
2023-03-05T02:01:49.086Z,58.33
2023-03-05T02:04:20.396Z,58.97
2023-03-05T02:06:49.778Z,59.57
2023-03-05T02:09:18.360Z,58.74
2023-03-05T02:11:46.838Z,59.07
2023-03-05T02:14:15.036Z,58.96
2023-03-05T02:16:44.238Z,58.68
2023-03-05T02:19:13.979Z,59.31
2023-03-05T02:21:46.055Z,58.90
2023-03-05T02:24:15.300Z,58.82
2023-03-05T02:26:44.804Z,59.04
2023-03-05T02:29:19.354Z,58.69
2023-03-05T02:31:47.755Z,59.09
2023-03-05T02:34:16.148Z,58.92
2023-03-05T02:36:46.712Z,59.83
2023-03-05T02:39:14.999Z,59.22
2023-03-05T02:41:43.741Z,59.66
2023-03-05T02:44:12.379Z,59.11
2023-03-05T02:46:40.389Z,59.75
2023-03-05T02:49:09.178Z,59.83
2023-03-05T02:51:37.550Z,59.32
2023-03-05T02:54:07.173Z,60.40
2023-03-05T02:56:35.377Z,59.93
2023-03-05T02:59:03.446Z,59.74
2023-03-05T03:01:31.591Z,60.85
2023-03-05T03:04:00.156Z,60.24
2023-03-05T03:06:28.219Z,60.16
2023-03-05T03:08:56.271Z,60.97
2023-03-05T03:11:25.786Z,60.88
2023-03-05T03:13:53.808Z,61.54
2023-03-05T03:16:21.884Z,61.16
2023-03-05T03:18:50.011Z,62.06
2023-03-05T03:21:21.066Z,61.36
2023-03-05T03:23:49.411Z,61.94
2023-03-05T03:26:17.793Z,62.09
2023-03-05T03:28:47.331Z,61.47
2023-03-05T03:31:15.803Z,61.56
2023-03-05T03:33:45.217Z,61.29
2023-03-05T03:36:15.445Z,61.05
2023-03-05T03:38:43.757Z,61.20
2023-03-05T03:41:11.820Z,62.15
2023-03-05T03:43:39.976Z,61.61
2023-03-05T03:46:10.223Z,61.19
2023-03-05T03:48:38.522Z,61.91
2023-03-05T03:51:08.557Z,61.50
2023-03-05T03:53:36.674Z,61.88
2023-03-05T03:56:05.536Z,61.29
2023-03-05T03:58:33.813Z,61.25
2023-03-05T04:01:02.086Z,61.03
2023-03-05T04:03:31.437Z,60.87
2023-03-05T04:05:59.503Z,61.96
2023-03-05T04:08:27.943Z,61.27
2023-03-05T04:10:56.039Z,60.10
2023-03-05T04:13:24.108Z,60.40
2023-03-05T04:15:52.451Z,60.30
2023-03-05T04:18:20.536Z,60.37
2023-03-05T04:20:50.073Z,60.46
2023-03-05T04:23:18.700Z,60.91
2023-03-05T04:25:46.984Z,60.14
2023-03-05T04:28:15.200Z,60.68
2023-03-05T04:30:43.630Z,60.56
2023-03-05T04:33:11.936Z,60.30
2023-03-05T04:35:40.068Z,61.39
2023-03-05T04:38:10.320Z,61.02
2023-03-05T04:40:38.586Z,60.79
2023-03-05T04:43:07.342Z,60.73
2023-03-05T04:45:37.143Z,60.66
2023-03-05T04:48:05.770Z,60.40
2023-03-05T04:50:34.108Z,60.83
2023-03-05T04:53:02.644Z,60.88
2023-03-05T04:55:32.049Z,60.08
2023-03-05T04:58:00.196Z,60.38
2023-03-05T05:00:28.297Z,60.93
2023-03-05T05:02:56.417Z,61.07
2023-03-05T05:05:29.369Z,60.34
2023-03-05T05:07:58.952Z,60.34
2023-03-05T05:10:27.815Z,60.54
2023-03-05T05:12:59.241Z,60.06
2023-03-05T05:15:28.490Z,60.04
2023-03-05T05:17:56.490Z,60.49
2023-03-05T05:20:24.549Z,60.53
2023-03-05T05:22:52.677Z,60.56
2023-03-05T05:25:20.776Z,59.85
2023-03-05T05:27:49.010Z,60.16
2023-03-05T05:30:42.565Z,59.51
2023-03-05T05:33:10.576Z,60.69
2023-03-05T05:35:41.102Z,60.71
2023-03-05T05:38:09.181Z,59.88
2023-03-05T05:41:02.006Z,61.31
2023-03-05T05:43:30.030Z,60.01
2023-03-05T05:46:02.073Z,60.34
2023-03-05T05:48:31.188Z,60.00
2023-03-05T05:50:59.552Z,61.04
2023-03-05T05:53:28.053Z,60.95
2023-03-05T05:55:56.143Z,60.64
2023-03-05T05:58:24.241Z,59.91
2023-03-05T06:00:52.433Z,60.50
2023-03-05T06:03:22.072Z,60.55
2023-03-05T06:05:51.750Z,60.94
2023-03-05T06:08:20.193Z,59.70
2023-03-05T06:10:56.108Z,60.22
2023-03-05T06:13:24.153Z,60.07
2023-03-05T06:16:03.654Z,59.69
2023-03-05T06:18:34.224Z,60.81
2023-03-05T06:21:05.366Z,60.60
2023-03-05T06:23:34.026Z,60.03
2023-03-05T06:26:04.356Z,59.59
2023-03-05T06:28:32.667Z,60.41
2023-03-05T06:31:02.414Z,59.70
2023-03-05T06:33:33.119Z,59.95
2023-03-05T06:36:03.414Z,59.77
2023-03-05T06:38:31.597Z,60.33
2023-03-05T06:41:02.833Z,59.44
2023-03-05T06:43:33.241Z,59.62
2023-03-05T06:46:05.841Z,61.03
2023-03-05T06:48:35.794Z,60.39
2023-03-05T06:51:04.421Z,60.85
2023-03-05T06:53:32.844Z,60.48
2023-03-05T06:56:05.922Z,60.72
2023-03-05T06:58:34.027Z,60.08
2023-03-05T07:01:02.291Z,59.73
2023-03-05T07:03:30.624Z,59.89
2023-03-05T07:06:00.041Z,59.04
2023-03-05T07:08:33.180Z,58.91
2023-03-05T07:11:01.624Z,58.58
2023-03-05T07:13:30.035Z,59.26
2023-03-05T07:15:58.203Z,59.71
2023-03-05T07:18:26.272Z,59.68
2023-03-05T07:20:55.439Z,59.71
2023-03-05T07:23:27.006Z,59.85
2023-03-05T07:25:55.333Z,59.93
2023-03-05T07:28:23.527Z,58.40
2023-03-05T07:30:58.221Z,59.55
2023-03-05T07:33:26.493Z,59.54
2023-03-05T07:35:54.740Z,59.14
2023-03-05T07:38:24.678Z,59.17
2023-03-05T07:40:53.155Z,59.03
2023-03-05T07:43:21.242Z,59.27
2023-03-05T07:45:49.309Z,59.42
2023-03-05T07:48:20.962Z,59.73
2023-03-05T07:50:49.815Z,59.39
2023-03-05T07:53:18.049Z,59.29
2023-03-05T07:55:48.579Z,59.53
2023-03-05T07:58:16.617Z,58.80
2023-03-05T08:00:44.656Z,58.25
2023-03-05T08:03:15.687Z,58.70
2023-03-05T08:05:44.167Z,58.04
2023-03-05T08:08:12.358Z,57.20
2023-03-05T08:10:41.062Z,57.47
2023-03-05T08:13:10.499Z,57.36
2023-03-05T08:15:39.329Z,57.34
2023-03-05T08:18:07.509Z,56.87
2023-03-05T08:20:36.438Z,56.33
2023-03-05T08:23:04.868Z,55.71
2023-03-05T08:25:33.310Z,55.89
2023-03-05T08:28:01.358Z,55.63
2023-03-05T08:30:31.060Z,55.41
2023-03-05T08:32:59.160Z,55.33
2023-03-05T08:35:27.718Z,54.89
2023-03-05T08:37:57.380Z,54.99
2023-03-05T08:40:25.568Z,55.27
2023-03-05T08:42:53.627Z,56.04
2023-03-05T08:45:21.790Z,55.55
2023-03-05T08:47:51.364Z,56.22
2023-03-05T08:50:19.730Z,56.28
2023-03-05T08:52:47.759Z,55.85
2023-03-05T08:55:43.217Z,55.70
2023-03-05T08:58:12.221Z,56.21
2023-03-05T09:00:41.096Z,56.29
2023-03-05T09:03:11.169Z,55.78
2023-03-05T09:05:39.516Z,56.04
2023-03-05T09:08:07.656Z,55.98
2023-03-05T09:10:35.716Z,55.79
2023-03-05T09:13:04.314Z,55.51
2023-03-05T09:15:32.901Z,56.30
2023-03-05T09:18:01.287Z,55.84
2023-03-05T09:20:30.831Z,56.04
2023-03-05T09:22:59.246Z,55.84
2023-03-05T09:25:27.825Z,55.30
2023-03-05T09:27:56.041Z,55.67
2023-03-05T09:30:24.365Z,55.86
2023-03-05T09:32:52.570Z,56.15
2023-03-05T09:35:20.785Z,55.42
2023-03-05T09:37:50.281Z,55.53
2023-03-05T09:40:20.681Z,56.05
2023-03-05T09:43:03.611Z,55.90
2023-03-05T09:45:39.354Z,55.18
2023-03-05T09:48:17.905Z,56.08
2023-03-05T09:50:50.515Z,55.78
2023-03-05T09:56:32.829Z,55.69
2023-03-05T09:59:15.272Z,55.55
2023-03-05T10:01:44.978Z,55.80
2023-03-05T10:04:17.752Z,55.70
2023-03-05T10:06:54.301Z,55.39
2023-03-05T10:09:44.280Z,54.73
2023-03-05T10:12:25.251Z,55.02
2023-03-05T10:14:53.565Z,54.72
2023-03-05T10:17:45.818Z,55.27
2023-03-05T10:20:42.534Z,54.68
2023-03-05T10:23:31.182Z,54.45
2023-03-05T10:26:19.448Z,54.88
2023-03-05T10:28:58.689Z,54.46
2023-03-05T10:31:54.166Z,54.35
2023-03-05T10:34:57.988Z,54.18
2023-03-05T10:38:19.269Z,54.68
2023-03-05T10:40:52.089Z,54.24
2023-03-05T10:43:30.632Z,54.37
2023-03-05T10:45:59.739Z,54.17
2023-03-05T10:48:36.644Z,54.50
2023-03-05T10:51:14.445Z,54.97
2023-03-05T10:53:55.898Z,54.46
2023-03-05T10:56:26.534Z,54.48
2023-03-05T10:58:56.366Z,54.05
2023-03-05T11:01:28.093Z,54.59
2023-03-05T11:03:59.518Z,54.81
2023-03-05T11:06:38.737Z,54.82
2023-03-05T11:09:28.210Z,55.36
2023-03-05T11:12:17.025Z,54.69
2023-03-05T11:15:02.957Z,54.70
2023-03-05T11:17:34.330Z,54.90
2023-03-05T11:20:35.355Z,55.01
2023-03-05T11:23:06.841Z,55.01
2023-03-05T11:25:36.404Z,55.85
2023-03-05T11:28:05.180Z,56.20
2023-03-05T11:30:37.555Z,55.42
2023-03-05T11:33:11.355Z,55.36
2023-03-05T11:35:42.055Z,56.04
2023-03-05T11:38:20.367Z,56.11
2023-03-05T11:40:49.458Z,55.91
2023-03-05T11:43:21.127Z,56.42
2023-03-05T11:45:53.839Z,56.13
2023-03-05T11:48:28.245Z,56.16
2023-03-05T11:51:02.070Z,56.87
2023-03-05T11:53:33.162Z,57.02
2023-03-05T11:56:12.694Z,56.96
2023-03-05T11:58:47.442Z,56.18
2023-03-05T12:01:20.666Z,56.29
2023-03-05T12:03:50.269Z,56.72
2023-03-05T12:06:27.379Z,56.19
2023-03-05T12:08:58.933Z,56.90
2023-03-05T12:11:31.618Z,56.47
2023-03-05T12:14:12.867Z,56.71
2023-03-05T12:16:47.907Z,57.01
2023-03-05T12:19:38.752Z,56.65
2023-03-05T12:22:17.238Z,55.91
2023-03-05T12:24:45.482Z,55.88
2023-03-05T12:27:18.305Z,56.16
2023-03-05T12:29:50.467Z,55.90
2023-03-05T12:32:57.132Z,55.85
2023-03-05T12:35:35.918Z,55.01
2023-03-05T12:38:31.853Z,54.72
2023-03-05T12:41:39.500Z,55.07
2023-03-05T12:44:22.258Z,54.69
2023-03-05T12:47:23.412Z,54.74
2023-03-05T12:49:53.249Z,54.71
2023-03-05T12:52:28.113Z,54.67
2023-03-05T12:55:17.448Z,54.22
2023-03-05T12:57:48.450Z,54.00
2023-03-05T13:00:23.804Z,54.55
2023-03-05T13:02:58.004Z,54.22
2023-03-05T13:05:32.713Z,54.47
2023-03-05T13:08:23.980Z,54.24
2023-03-05T13:10:56.569Z,54.09
2023-03-05T13:13:26.587Z,54.44
2023-03-05T13:15:55.029Z,54.58
2023-03-05T13:18:26.854Z,54.88
2023-03-05T13:21:05.691Z,54.56
2023-03-05T13:23:35.350Z,54.56
2023-03-05T13:26:15.174Z,53.92
2023-03-05T13:28:45.386Z,54.69
2023-03-05T13:31:18.470Z,54.12
2023-03-05T13:33:56.817Z,54.32
2023-03-05T13:36:28.730Z,54.33
2023-03-05T13:38:57.112Z,54.54
2023-03-05T13:41:27.173Z,54.13
2023-03-05T13:43:58.164Z,54.37
2023-03-05T13:46:32.500Z,53.99
2023-03-05T13:49:20.344Z,54.14
2023-03-05T13:51:52.495Z,54.25
2023-03-05T13:54:22.397Z,54.70
2023-03-05T13:56:54.245Z,54.53
2023-03-05T13:59:25.032Z,54.58
2023-03-05T14:01:54.722Z,54.48
2023-03-05T14:04:26.648Z,53.91
2023-03-05T14:07:01.205Z,54.83
2023-03-05T14:09:32.176Z,54.40
2023-03-05T14:12:04.497Z,54.84
2023-03-05T14:14:38.031Z,54.56
2023-03-05T14:17:39.967Z,54.80
2023-03-05T14:20:23.579Z,54.86
2023-03-05T14:22:57.071Z,54.98
2023-03-05T14:25:38.392Z,54.74
2023-03-05T14:28:20.930Z,54.38
2023-03-05T14:30:52.567Z,54.24
2023-03-05T14:33:25.933Z,54.34
2023-03-05T14:35:54.488Z,55.30
2023-03-05T14:38:28.654Z,54.86
2023-03-05T14:40:57.304Z,54.59
2023-03-05T14:43:25.497Z,54.38
2023-03-05T14:45:53.852Z,55.55
2023-03-05T14:48:21.950Z,55.36
2023-03-05T14:50:57.218Z,54.87
2023-03-05T14:53:34.892Z,54.36
2023-03-05T14:56:03.320Z,55.19
2023-03-05T14:58:35.619Z,55.37
2023-03-05T15:01:04.264Z,55.07
2023-03-05T15:03:32.970Z,54.83
2023-03-05T15:06:01.133Z,55.63
2023-03-05T15:08:33.275Z,55.94
2023-03-05T15:11:02.253Z,55.33
2023-03-05T15:13:31.891Z,55.59
2023-03-05T15:16:00.358Z,56.41
2023-03-05T15:18:28.827Z,55.91
2023-03-05T15:20:58.083Z,56.04
2023-03-05T15:23:26.369Z,55.82
2023-03-05T15:25:55.923Z,55.67
2023-03-05T15:28:24.464Z,55.87
2023-03-05T15:30:52.659Z,56.11
2023-03-05T15:33:20.681Z,56.16
2023-03-05T15:35:48.766Z,55.77
2023-03-05T15:38:17.276Z,55.20
2023-03-05T15:40:47.023Z,55.64
2023-03-05T15:43:16.753Z,54.99
2023-03-05T15:45:44.992Z,55.83
2023-03-05T15:48:13.632Z,55.37
2023-03-05T15:50:43.352Z,55.87
2023-03-05T15:53:16.172Z,55.67
2023-03-05T15:55:45.822Z,55.81
2023-03-05T15:58:17.548Z,56.04
2023-03-05T16:00:47.546Z,55.78
2023-03-05T16:03:16.224Z,56.42
2023-03-05T16:05:44.486Z,56.07
2023-03-05T16:08:12.809Z,55.59
2023-03-05T16:10:41.885Z,55.88
2023-03-05T16:13:17.385Z,55.26
2023-03-05T16:15:53.183Z,55.45
2023-03-05T16:18:22.684Z,56.04
2023-03-05T16:20:51.229Z,56.54
2023-03-05T16:23:20.015Z,55.71
2023-03-05T16:25:48.480Z,56.40
2023-03-05T16:28:20.190Z,55.79
2023-03-05T16:30:55.284Z,56.73
2023-03-05T16:33:23.588Z,56.58
2023-03-05T16:35:57.442Z,56.11
2023-03-05T16:38:26.399Z,56.02
2023-03-05T16:41:07.844Z,56.68
2023-03-05T16:43:36.763Z,56.47
2023-03-05T16:46:06.583Z,56.43
2023-03-05T16:48:35.748Z,56.01
2023-03-05T16:51:05.781Z,56.82
2023-03-05T16:53:34.132Z,56.43
2023-03-05T16:56:05.482Z,56.29
2023-03-05T16:58:34.807Z,56.51
2023-03-05T17:01:03.860Z,56.41
2023-03-05T17:03:33.558Z,55.83
2023-03-05T17:06:01.765Z,56.10
2023-03-05T17:08:29.770Z,56.55
2023-03-05T17:10:57.985Z,56.74
2023-03-05T17:13:26.149Z,57.42
2023-03-05T17:15:56.954Z,56.39
2023-03-05T17:18:26.062Z,56.77
2023-03-05T17:20:55.708Z,56.77
2023-03-05T17:23:24.594Z,56.45
2023-03-05T17:25:52.784Z,56.78
2023-03-05T17:28:21.476Z,56.98
2023-03-05T17:30:49.848Z,56.37
2023-03-05T17:33:18.086Z,56.54
2023-03-05T17:35:47.799Z,57.23
2023-03-05T17:38:18.432Z,56.49
2023-03-05T17:40:46.711Z,57.13
2023-03-05T17:43:14.918Z,57.07
2023-03-05T17:45:43.869Z,57.59
2023-03-05T17:48:12.817Z,57.23
2023-03-05T17:50:41.902Z,57.08
2023-03-05T17:53:10.489Z,56.77
2023-03-05T17:55:43.653Z,56.90
2023-03-05T17:58:11.923Z,56.63
2023-03-05T18:00:40.201Z,57.48
2023-03-05T18:03:12.370Z,57.47
2023-03-05T18:05:40.938Z,57.20
2023-03-05T18:08:10.608Z,57.04
2023-03-05T18:10:40.106Z,56.51
2023-03-05T18:13:08.121Z,57.26
2023-03-05T18:15:37.236Z,57.39
2023-03-05T18:18:05.656Z,57.17
2023-03-05T18:20:37.262Z,57.00
2023-03-05T18:23:06.591Z,57.86
2023-03-05T18:25:35.325Z,57.81
2023-03-05T18:28:08.519Z,57.73
2023-03-05T18:30:37.806Z,57.65
2023-03-05T18:33:06.244Z,58.12
2023-03-05T18:35:35.221Z,57.20
2023-03-05T18:38:03.546Z,57.78
2023-03-05T18:40:35.801Z,57.74
2023-03-05T18:43:05.416Z,57.62
2023-03-05T18:45:34.329Z,58.00
2023-03-05T18:48:02.502Z,57.27
2023-03-05T18:50:31.500Z,57.58
2023-03-05T18:52:59.659Z,57.16
2023-03-05T18:55:30.517Z,57.94
2023-03-05T18:57:59.042Z,57.35
2023-03-05T19:00:31.691Z,58.05
2023-03-05T19:02:59.946Z,58.12
2023-03-05T19:05:29.196Z,57.21
2023-03-05T19:07:57.512Z,57.46
2023-03-05T19:10:26.592Z,56.99
2023-03-05T19:13:05.534Z,57.02
2023-03-05T19:15:35.265Z,57.09
2023-03-05T19:18:03.286Z,57.55
2023-03-05T19:20:31.399Z,58.12
2023-03-05T19:22:59.427Z,57.15
2023-03-05T19:25:27.495Z,57.99
2023-03-05T19:27:55.992Z,58.20
2023-03-05T19:30:24.291Z,58.43
2023-03-05T19:32:53.854Z,57.68
2023-03-05T19:35:22.209Z,57.50
2023-03-05T19:37:50.413Z,57.73
2023-03-05T19:40:19.203Z,58.44
2023-03-05T19:42:47.271Z,57.84
2023-03-05T19:45:15.636Z,58.02
2023-03-05T19:47:43.689Z,57.16
2023-03-05T19:50:16.223Z,57.67
2023-03-05T19:52:44.470Z,57.31
2023-03-05T19:55:13.204Z,57.15
2023-03-05T19:57:41.335Z,58.02
2023-03-05T20:00:14.600Z,56.76
2023-03-05T20:02:42.644Z,56.71
2023-03-05T20:05:11.276Z,57.11
2023-03-05T20:07:40.665Z,56.68
2023-03-05T20:10:10.759Z,57.45
2023-03-05T20:12:39.197Z,57.21
2023-03-05T20:15:08.579Z,57.76
2023-03-05T20:17:36.687Z,57.23
2023-03-05T20:20:07.365Z,56.76
2023-03-05T20:22:35.542Z,57.03
2023-03-05T20:25:06.769Z,57.66
2023-03-05T20:27:35.270Z,57.73
2023-03-05T20:30:03.295Z,57.57
2023-03-05T20:32:31.790Z,57.63
2023-03-05T20:34:59.913Z,58.13
2023-03-05T20:37:39.890Z,57.87
2023-03-05T20:40:11.740Z,58.14
2023-03-05T20:42:40.014Z,58.02
2023-03-05T20:45:09.744Z,57.31
2023-03-05T20:47:40.826Z,57.73
2023-03-05T20:50:10.925Z,58.08
2023-03-05T20:52:39.986Z,57.66
2023-03-05T20:55:10.743Z,57.39
2023-03-05T20:57:39.245Z,57.47
2023-03-05T21:00:09.481Z,58.12
2023-03-05T21:02:37.698Z,57.61
2023-03-05T21:05:07.430Z,57.95
2023-03-05T21:07:35.963Z,58.02
2023-03-05T21:10:05.803Z,57.50
2023-03-05T21:12:35.640Z,58.10
2023-03-05T21:15:03.835Z,57.97
2023-03-05T21:17:31.854Z,57.62
2023-03-05T21:20:00.232Z,57.73
2023-03-05T21:22:28.486Z,57.40
2023-03-05T21:25:03.347Z,57.70
2023-03-05T21:27:31.485Z,57.63
2023-03-05T21:30:01.195Z,58.32
2023-03-05T21:32:29.700Z,57.83
2023-03-05T21:34:59.391Z,57.96
2023-03-05T21:37:28.615Z,57.56
2023-03-05T21:39:56.664Z,57.86
2023-03-05T21:42:25.073Z,58.54
2023-03-05T21:44:55.009Z,58.52
2023-03-05T21:47:24.455Z,57.69
2023-03-05T21:49:52.911Z,57.66
2023-03-05T21:52:22.323Z,58.39
2023-03-05T21:54:50.327Z,58.10
2023-03-05T21:57:18.617Z,58.68
2023-03-05T21:59:46.724Z,58.74
2023-03-05T22:02:16.808Z,58.58
2023-03-05T22:04:47.374Z,58.26
2023-03-05T22:07:17.096Z,58.28
2023-03-05T22:09:45.473Z,58.86
2023-03-05T22:12:20.139Z,58.00
2023-03-05T22:14:48.317Z,58.19
2023-03-05T22:17:16.390Z,58.44
2023-03-05T22:19:45.717Z,58.75
2023-03-05T22:22:13.901Z,59.05
2023-03-05T22:24:41.973Z,58.46
2023-03-05T22:27:10.529Z,58.11
2023-03-05T22:29:38.932Z,58.42
2023-03-05T22:32:07.565Z,58.77
2023-03-05T22:34:37.502Z,59.07
2023-03-05T22:37:07.091Z,59.01
2023-03-05T22:39:35.321Z,59.17
2023-03-05T22:42:03.373Z,59.20
2023-03-05T22:44:31.497Z,58.76
2023-03-05T22:46:59.593Z,58.21
2023-03-05T22:49:27.889Z,59.65
2023-03-05T22:51:55.936Z,59.05
2023-03-05T22:54:25.501Z,59.91
2023-03-05T22:56:53.764Z,59.37
2023-03-05T22:59:21.876Z,58.38
2023-03-05T23:01:50.095Z,58.15
2023-03-05T23:04:28.988Z,58.45
2023-03-05T23:06:57.295Z,59.00
2023-03-05T23:09:27.151Z,58.13
2023-03-05T23:11:55.429Z,58.33
2023-03-05T23:14:23.632Z,58.71
2023-03-05T23:16:51.832Z,58.92
2023-03-05T23:19:20.146Z,58.01
2023-03-05T23:21:48.417Z,57.90
2023-03-05T23:24:16.724Z,56.97
2023-03-05T23:26:46.608Z,57.54
2023-03-05T23:29:15.229Z,57.38
2023-03-05T23:31:43.688Z,57.91
2023-03-05T23:34:11.867Z,58.06
2023-03-05T23:36:40.585Z,58.06
2023-03-05T23:39:08.792Z,57.78
2023-03-05T23:41:37.433Z,57.94
2023-03-05T23:44:07.268Z,58.48
2023-03-05T23:46:35.626Z,57.83
2023-03-05T23:49:03.916Z,58.12
2023-03-05T23:51:32.138Z,58.45
2023-03-05T23:54:00.596Z,58.26
2023-03-05T23:56:29.016Z,58.16
2023-03-05T23:59:00.515Z,58.12
